Time;durP1;ratioP1;P1;durP2;ratioP2;P2;SDS_P1;SDS_P2;PMS_P1;PMS_P2;Temp;Humidity;BMP_temperature;BMP_pressure;BME280_temperature;BME280_humidity;BME280_pressure;Samples;Min_cycle;Max_cycle;Signal;HPM_P1;HPM_P2
2024/01/10 00:02:54;;;;;;;9.37;7.70;;;;;;;18.10;36.58;97196.00;10363824;28;20092;-31
2024/01/10 00:07:54;;;;;;;9.13;7.90;;;;;;;18.09;36.63;97201.91;10364143;28;20033;-32
2024/01/10 00:12:55;;;;;;;8.57;7.67;;;;;;;18.08;36.25;97197.69;10360599;28;20518;-30
2024/01/10 00:17:55;;;;;;;9.33;7.47;;;;;;;18.07;36.03;97178.25;10362586;28;20072;-31
2024/01/10 00:22:57;;;;;;;9.23;7.47;;;;;;;18.06;36.18;97181.59;10363439;28;20116;-31
2024/01/10 00:27:57;;;;;;;11.50;8.32;;;;;;;18.09;35.75;97176.56;10363078;28;20311;-33
2024/01/10 00:32:57;;;;;;;9.30;7.60;;;;;;;18.09;36.20;97163.91;10362870;28;20095;-31
2024/01/10 00:37:58;;;;;;;10.10;7.83;;;;;;;18.10;36.21;97168.13;10363646;28;20394;-31
2024/01/10 00:42:58;;;;;;;8.60;7.47;;;;;;;18.11;36.28;97164.75;10362706;28;20034;-32
2024/01/10 00:47:58;;;;;;;12.17;8.60;;;;;;;18.14;35.91;97162.25;10362794;28;20440;-32
2024/01/10 00:52:59;;;;;;;10.40;7.80;;;;;;;18.15;35.80;97163.97;10363237;28;20038;-30
2024/01/10 00:57:59;;;;;;;9.00;8.00;;;;;;;18.14;35.61;97163.09;10361727;28;20547;-30
2024/01/10 01:02:59;;;;;;;8.67;6.83;;;;;;;18.11;36.44;97162.22;10362692;28;20025;-30
2024/01/10 01:08:00;;;;;;;9.82;7.47;;;;;;;18.12;36.05;97166.44;10362024;28;20037;-30
2024/01/10 01:13:00;;;;;;;9.17;6.87;;;;;;;18.12;36.30;97177.44;10361715;28;20042;-30
2024/01/10 01:18:03;;;;;;;9.97;7.57;;;;;;;18.13;36.66;97174.06;10360056;28;20041;-31
2024/01/10 01:23:03;;;;;;;9.68;8.15;;;;;;;18.12;36.58;97172.38;10362737;28;20323;-31
2024/01/10 01:28:04;;;;;;;9.15;7.55;;;;;;;18.12;36.03;97179.13;10367504;28;20045;-33
2024/01/10 01:33:05;;;;;;;8.63;6.93;;;;;;;18.10;36.35;97178.25;10367260;28;20046;-31
2024/01/10 01:38:05;;;;;;;10.43;7.20;;;;;;;18.09;36.22;97176.56;10369984;28;20488;-30
2024/01/10 01:43:25;;;;;;;9.00;7.50;;;;;;;18.09;35.50;97181.63;10368570;28;20038;-30
2024/01/10 01:48:26;;;;;;;8.57;7.05;;;;;;;18.09;35.64;97171.50;10368188;28;20418;-31
2024/01/10 01:53:28;;;;;;;10.00;7.50;;;;;;;18.08;36.74;97177.41;10368004;28;20038;-30
2024/01/10 01:58:29;;;;;;;10.93;8.23;;;;;;;18.12;36.69;97187.59;10368439;28;20078;-31
2024/01/10 02:03:31;;;;;;;9.32;7.47;;;;;;;18.11;36.29;97192.63;10367895;28;20116;-30
2024/01/10 02:08:33;;;;;;;9.43;7.40;;;;;;;18.14;35.83;97198.56;10367710;28;20978;-30
2024/01/10 02:13:34;;;;;;;8.73;7.00;;;;;;;18.16;35.63;97201.13;10365038;28;20041;-31
2024/01/10 02:18:34;;;;;;;9.02;7.68;;;;;;;18.16;35.29;97201.97;10367107;28;20038;-32
2024/01/10 02:23:35;;;;;;;9.73;8.23;;;;;;;18.15;35.48;97197.72;10364256;28;20030;-31
2024/01/10 02:28:35;;;;;;;10.53;8.33;;;;;;;18.12;35.83;97200.25;10367048;28;20038;-31
2024/01/10 02:33:36;;;;;;;9.67;7.73;;;;;;;18.14;35.53;97216.31;10366921;28;20034;-31
2024/01/10 02:38:36;;;;;;;10.33;8.47;;;;;;;18.11;36.47;97215.44;10365425;28;20325;-30
2024/01/10 02:43:36;;;;;;;11.63;7.70;;;;;;;18.11;36.94;97220.50;10366307;28;20250;-31
2024/01/10 02:48:37;;;;;;;8.83;7.43;;;;;;;18.11;36.13;97210.38;10365106;28;20037;-30
2024/01/10 02:53:37;;;;;;;7.22;6.43;;;;;;;18.09;36.17;97212.03;10364502;28;20038;-31
2024/01/10 02:58:37;;;;;;;10.10;8.07;;;;;;;18.10;35.48;97213.75;10365124;28;20046;-30
2024/01/10 03:03:38;;;;;;;10.33;7.87;;;;;;;18.12;36.00;97219.66;10366486;28;20140;-31
2024/01/10 03:08:38;;;;;;;8.87;7.70;;;;;;;18.12;36.62;97210.38;10363618;28;20117;-31
2024/01/10 03:13:40;;;;;;;8.70;7.80;;;;;;;18.12;36.40;97207.84;10364856;28;20297;-31
2024/01/10 03:18:40;;;;;;;8.30;6.80;;;;;;;18.09;35.93;97185.00;10365197;28;20041;-31
2024/01/10 03:23:40;;;;;;;9.20;7.37;;;;;;;18.17;35.54;97202.84;10364021;28;20490;-32
2024/01/10 03:28:41;;;;;;;8.40;6.77;;;;;;;18.15;36.54;97210.41;10365043;28;20030;-32
2024/01/10 03:33:41;;;;;;;9.37;7.77;;;;;;;18.17;36.01;97205.38;10364938;28;20517;-32
2024/01/10 03:38:44;;;;;;;9.38;6.93;;;;;;;18.17;37.27;97202.84;10363693;28;20030;-30
2024/01/10 03:43:45;;;;;;;9.75;7.53;;;;;;;18.15;36.42;97186.78;10361766;28;20568;-31
2024/01/10 03:48:48;;;;;;;7.75;6.93;;;;;;;18.15;36.28;97174.94;10364758;28;20092;-30
2024/01/10 03:53:49;;;;;;;8.65;7.70;;;;;;;18.13;36.22;97173.22;10362888;28;20110;-31
2024/01/10 03:58:49;;;;;;;9.95;7.40;;;;;;;18.15;35.93;97176.63;10363870;28;20132;-30
2024/01/10 04:03:49;;;;;;;9.70;6.67;;;;;;;18.14;36.55;97175.78;10363340;28;20038;-31
2024/01/10 04:08:50;;;;;;;9.17;7.57;;;;;;;18.13;36.17;97170.69;10363141;28;20296;-31
2024/01/10 04:13:50;;;;;;;9.40;7.90;;;;;;;18.13;36.61;97175.75;10363551;28;20068;-31
2024/01/10 04:18:50;;;;;;;10.17;7.83;;;;;;;18.14;35.70;97174.91;10362586;28;20052;-32
2024/01/10 04:23:51;;;;;;;10.30;7.37;;;;;;;18.12;36.97;97157.19;10361734;28;20409;-31
2024/01/10 04:28:52;;;;;;;8.10;6.95;;;;;;;18.12;36.35;97157.19;10362244;28;20044;-30
2024/01/10 04:33:52;;;;;;;7.57;6.77;;;;;;;18.14;36.96;97167.31;10362084;28;20108;-30
2024/01/10 04:38:53;;;;;;;8.63;7.33;;;;;;;18.15;36.15;97169.03;10362679;28;20565;-31
2024/01/10 04:43:53;;;;;;;8.82;7.60;;;;;;;18.17;36.12;97162.28;10356701;28;20037;-30
2024/01/10 04:48:53;;;;;;;8.93;7.50;;;;;;;18.19;35.84;97174.13;10358535;28;20458;-31
2024/01/10 04:53:55;;;;;;;10.47;8.03;;;;;;;18.19;35.97;97174.13;10355655;28;20037;-31
2024/01/10 04:58:56;;;;;;;11.75;8.27;;;;;;;18.17;36.52;97174.94;10362770;28;20135;-31
2024/01/10 05:03:56;;;;;;;11.45;7.55;;;;;;;18.18;35.84;97181.72;10363677;28;20120;-30
2024/01/10 05:08:58;;;;;;;10.20;8.23;;;;;;;18.11;35.92;97185.03;10366119;28;20041;-31
2024/01/10 05:13:58;;;;;;;8.85;7.55;;;;;;;18.18;35.40;97192.69;10369176;28;20536;-31
2024/01/10 05:19:02;;;;;;;10.33;8.40;;;;;;;18.19;35.52;97194.41;10362123;28;20030;-31
2024/01/10 05:24:03;;;;;;;9.82;7.88;;;;;;;18.18;34.96;97191.84;10367812;28;20034;-31
2024/01/10 05:29:03;;;;;;;10.55;7.63;;;;;;;18.13;34.38;97196.03;10368946;28;20409;-31
2024/01/10 05:34:05;;;;;;;14.33;10.50;;;;;;;18.12;33.83;97194.31;10363940;28;20038;-30
2024/01/10 05:39:05;;;;;;;11.95;10.00;;;;;;;18.12;32.20;97191.78;10367498;28;20307;-31
2024/01/10 05:44:05;;;;;;;12.13;10.17;;;;;;;18.17;32.19;97193.53;10367879;28;20033;-30
2024/01/10 05:49:08;;;;;;;14.33;10.40;;;;;;;18.23;32.51;97180.03;10367609;28;20296;-31
2024/01/10 05:54:08;;;;;;;16.88;10.52;;;;;;;18.22;35.64;97183.41;10362524;28;20044;-31
2024/01/10 05:59:11;;;;;;;13.77;10.43;;;;;;;18.24;36.04;97186.84;10367607;28;20041;-31
2024/01/10 06:04:11;;;;;;;15.70;9.95;;;;;;;18.36;35.39;97189.50;10365680;28;20033;-30
2024/01/10 06:09:11;;;;;;;15.37;10.77;;;;;;;18.35;36.81;97181.03;10366092;28;20513;-32
2024/01/10 06:14:12;;;;;;;15.33;10.40;;;;;;;18.37;38.08;97175.97;10367575;28;20276;-31
2024/01/10 06:19:12;;;;;;;14.10;10.23;;;;;;;18.38;36.78;97182.75;10366788;28;20076;-30
2024/01/10 06:24:12;;;;;;;19.47;10.07;;;;;;;18.38;37.49;97177.69;10366798;28;20037;-31
2024/01/10 06:29:13;;;;;;;15.77;9.77;;;;;;;18.32;37.92;97175.13;10368094;28;20052;-31
2024/01/10 06:34:13;;;;;;;16.17;10.63;;;;;;;18.29;36.29;97182.63;10367243;28;20696;-33
2024/01/10 06:39:13;;;;;;;16.33;11.57;;;;;;;17.97;35.34;97187.44;10366358;28;20026;-31
2024/01/10 06:44:14;;;;;;;28.57;10.97;;;;;;;18.07;37.29;97189.22;10367141;28;20037;-30
2024/01/10 06:49:15;;;;;;;18.40;10.50;;;;;;;18.16;37.31;97193.53;10366472;28;20061;-31
2024/01/10 06:54:15;;;;;;;14.30;9.63;;;;;;;18.16;37.29;97196.06;10365984;28;20691;-31
2024/01/10 06:59:16;;;;;;;15.90;10.65;;;;;;;18.12;37.02;97199.38;10366853;28;20050;-32
2024/01/10 07:04:17;;;;;;;12.73;9.43;;;;;;;18.12;36.94;97212.94;10365359;28;20038;-31
2024/01/10 07:09:19;;;;;;;11.40;9.77;;;;;;;18.18;36.22;97218.03;10365999;28;20285;-30
2024/01/10 07:14:19;;;;;;;15.38;11.70;;;;;;;18.21;36.14;97219.75;10366074;28;20030;-31
2024/01/10 07:19:20;;;;;;;13.07;10.87;;;;;;;18.22;36.09;97222.31;10365260;28;20041;-31
2024/01/10 07:24:21;;;;;;;13.30;10.70;;;;;;;18.24;35.79;97232.47;10364810;28;20452;-31
2024/01/10 07:29:21;;;;;;;12.60;10.68;;;;;;;18.23;35.96;97231.59;10365734;28;20417;-31
2024/01/10 07:34:21;;;;;;;12.17;9.93;;;;;;;18.23;36.19;97235.81;10364474;28;20022;-32
2024/01/10 07:39:22;;;;;;;13.53;10.07;;;;;;;18.24;36.43;97238.38;10364469;28;20034;-31
2024/01/10 07:44:24;;;;;;;12.57;9.80;;;;;;;18.20;36.31;97238.31;10365343;28;20091;-30
2024/01/10 07:49:24;;;;;;;13.00;9.93;;;;;;;18.24;37.47;97240.06;10364639;28;20034;-31
2024/01/10 07:54:25;;;;;;;11.07;9.30;;;;;;;18.21;36.99;97245.09;10363309;28;20034;-30
2024/01/10 07:59:25;;;;;;;10.63;9.23;;;;;;;18.20;36.42;97240.84;10364991;28;20045;-30
2024/01/10 08:04:29;;;;;;;13.37;9.73;;;;;;;18.18;36.23;97242.53;10363737;28;20038;-31
2024/01/10 08:09:29;;;;;;;11.73;10.25;;;;;;;18.16;36.46;97239.97;10363192;28;20354;-30
2024/01/10 08:14:29;;;;;;;13.97;10.33;;;;;;;18.17;37.69;97241.66;10363877;28;20033;-32
2024/01/10 08:19:30;;;;;;;12.03;9.33;;;;;;;18.15;37.72;97240.81;10363574;28;20050;-31
2024/01/10 08:24:30;;;;;;;10.27;8.43;;;;;;;18.14;38.36;97240.78;10362720;28;20375;-30
2024/01/10 08:29:31;;;;;;;12.03;9.47;;;;;;;18.14;38.71;97234.06;10363117;28;20033;-30
2024/01/10 08:34:31;;;;;;;10.70;8.60;;;;;;;18.13;38.42;97234.03;10363632;28;20308;-30
2024/01/10 08:39:32;;;;;;;9.70;8.27;;;;;;;18.10;41.46;97239.06;10362827;28;20037;-31
2024/01/10 08:44:32;;;;;;;10.05;7.85;;;;;;;18.09;42.52;97237.38;10363169;28;20080;-31
2024/01/10 08:49:33;;;;;;;10.20;8.17;;;;;;;18.02;41.81;97228.03;10363491;28;20033;-31
2024/01/10 08:54:33;;;;;;;10.55;8.65;;;;;;;18.04;42.13;97236.47;10362321;28;20033;-32
2024/01/10 08:59:34;;;;;;;10.52;8.25;;;;;;;18.05;41.73;97244.09;10363770;28;20026;-31
2024/01/10 09:04:34;;;;;;;9.35;7.70;;;;;;;17.92;42.28;97233.84;10362381;28;20036;-31
2024/01/10 09:09:35;;;;;;;10.83;8.23;;;;;;;18.05;40.99;97249.16;10362005;28;20585;-31
2024/01/10 09:14:35;;;;;;;11.40;8.30;;;;;;;18.03;41.43;97258.44;10363102;28;20037;-31
2024/01/10 09:19:36;;;;;;;9.80;7.73;;;;;;;18.01;41.57;97264.31;10361297;28;20062;-31
2024/01/10 09:24:36;;;;;;;8.53;7.60;;;;;;;18.03;40.74;97270.25;10361689;28;20044;-31
2024/01/10 09:29:36;;;;;;;11.67;7.90;;;;;;;18.00;40.98;97267.69;10362918;28;20026;-31
2024/01/10 09:34:37;;;;;;;10.33;8.27;;;;;;;17.99;40.69;97276.13;10361589;28;20025;-33
2024/01/10 09:39:37;;;;;;;10.53;8.10;;;;;;;17.97;40.51;97277.78;10361617;28;20300;-30
2024/01/10 09:44:37;;;;;;;11.10;7.80;;;;;;;17.96;40.69;97276.94;10366734;28;20022;-31
2024/01/10 09:49:38;;;;;;;8.90;7.47;;;;;;;17.96;40.56;97278.63;10368885;28;20038;-31
2024/01/10 09:54:40;;;;;;;10.90;8.27;;;;;;;17.95;41.06;97282.84;10368318;28;20030;-30
2024/01/10 09:59:43;;;;;;;10.55;8.60;;;;;;;17.93;40.96;97271.00;10369263;28;20327;-31
2024/01/10 10:04:56;;;;;;;9.73;7.45;;;;;;;17.92;40.68;97279.44;10368755;28;20029;-31
2024/01/10 10:09:57;;;;;;;9.77;7.75;;;;;;;17.92;40.39;97290.41;10359685;28;20029;-31
2024/01/10 10:15:09;;;;;;;9.47;8.37;;;;;;;17.88;40.15;97280.22;10368339;28;20083;-31
2024/01/10 10:20:10;;;;;;;10.57;8.18;;;;;;;17.90;40.38;97286.16;10367007;28;20042;-31
2024/01/10 10:25:16;;;;;;;11.32;9.20;;;;;;;17.88;40.61;97287.81;10367463;28;20037;-30
2024/01/10 10:30:16;;;;;;;9.88;8.30;;;;;;;17.89;40.03;97294.56;10367835;28;20572;-31
2024/01/10 10:35:20;;;;;;;10.15;7.95;;;;;;;17.89;40.22;97299.63;10367461;28;20041;-31
2024/01/10 10:40:22;;;;;;;10.18;8.02;;;;;;;17.88;40.10;97303.00;10366627;28;20041;-30
2024/01/10 10:45:26;;;;;;;10.43;8.40;;;;;;;17.86;40.58;97305.56;10367917;28;20033;-31
2024/01/10 10:50:34;;;;;;;8.20;7.40;;;;;;;17.86;39.30;97310.63;10366656;28;20636;-31
2024/01/10 10:55:37;;;;;;;10.55;8.50;;;;;;;17.86;39.94;97307.22;10366257;28;20417;-30
2024/01/10 11:00:39;;;;;;;11.40;8.18;;;;;;;17.84;40.14;97304.66;10365401;28;20049;-31
2024/01/10 11:05:41;;;;;;;10.02;8.25;;;;;;;17.74;40.28;97289.34;10366193;28;20393;-32
2024/01/10 11:10:43;;;;;;;8.98;8.07;;;;;;;17.81;40.15;97301.22;10365183;28;20080;-31
2024/01/10 11:16:05;;;;;;;8.13;7.32;;;;;;;17.83;39.98;97302.13;10366256;28;20397;-32
2024/01/10 11:21:39;;;;;;;10.57;8.25;;;;;;;17.82;39.91;97283.53;10365777;28;20386;-31
2024/01/10 11:26:39;;;;;;;8.90;7.72;;;;;;;17.84;39.93;97283.56;10365365;28;20034;-30
2024/01/10 11:31:39;;;;;;;9.38;8.18;;;;;;;17.84;39.61;97271.72;10364188;28;20033;-31
2024/01/10 11:37:09;;;;;;;9.83;7.90;;;;;;;17.84;40.08;97270.91;10364526;28;20053;-31
2024/01/10 11:42:10;;;;;;;9.50;8.30;;;;;;;17.83;39.95;97251.47;10362415;28;20391;-31
2024/01/10 11:47:10;;;;;;;11.48;7.93;;;;;;;17.89;40.54;97259.13;10363365;28;20032;-30
2024/01/10 11:52:11;;;;;;;21.27;8.50;;;;;;;17.98;38.59;97260.06;10364879;28;20088;-30
2024/01/10 11:57:13;;;;;;;14.10;8.07;;;;;;;18.02;39.09;97255.88;10365005;28;20037;-30
2024/01/10 12:02:14;;;;;;;14.40;6.95;;;;;;;18.02;39.16;97240.69;10363663;28;20536;-31
2024/01/10 12:07:16;;;;;;;12.07;7.50;;;;;;;18.02;38.71;97241.56;10364793;28;20034;-30
2024/01/10 12:12:17;;;;;;;10.02;7.32;;;;;;;18.07;38.34;97249.19;10363682;28;20045;-30
2024/01/10 12:17:18;;;;;;;10.38;8.05;;;;;;;18.09;37.63;97243.28;10364212;28;20115;-31
2024/01/10 12:22:19;;;;;;;22.63;16.63;;;;;;;17.68;34.60;97251.28;10363502;28;20142;-30
2024/01/10 12:27:20;;;;;;;12.47;9.97;;;;;;;17.94;35.47;97247.34;10356958;28;20022;-31
2024/01/10 12:32:22;;;;;;;17.58;10.45;;;;;;;17.93;35.86;97248.19;10361047;28;20299;-31
2024/01/10 12:37:22;;;;;;;10.30;9.20;;;;;;;18.05;36.11;97246.63;10364320;28;20057;-31
2024/01/10 12:42:23;;;;;;;11.63;8.67;;;;;;;18.09;36.44;97250.88;10364635;28;20121;-30
2024/01/10 12:47:25;;;;;;;14.68;9.07;;;;;;;18.13;35.91;97250.09;10364002;28;20545;-30
2024/01/10 12:52:25;;;;;;;10.40;8.93;;;;;;;18.15;36.70;97253.50;10362560;28;20405;-31
2024/01/10 12:57:26;;;;;;;9.90;8.65;;;;;;;18.14;36.56;97250.94;10364127;28;20037;-31
2024/01/10 13:02:26;;;;;;;23.73;9.87;;;;;;;18.19;35.73;97250.16;10363487;28;20036;-31
2024/01/10 13:07:27;;;;;;;18.03;9.53;;;;;;;18.23;37.57;97245.94;10363727;28;20033;-31
2024/01/10 13:12:27;;;;;;;13.43;8.27;;;;;;;18.20;37.24;97248.47;10359011;28;20545;-31
2024/01/10 13:17:27;;;;;;;12.37;8.63;;;;;;;18.20;36.77;97245.94;10364916;28;20042;-31
2024/01/10 13:22:28;;;;;;;10.03;7.87;;;;;;;18.19;35.91;97250.16;10369738;28;20029;-31
2024/01/10 13:27:28;;;;;;;10.70;8.93;;;;;;;18.19;36.91;97259.44;10370481;28;20651;-31
2024/01/10 13:32:28;;;;;;;11.90;8.93;;;;;;;18.16;35.91;97259.41;10368969;28;20489;-31
2024/01/10 13:37:29;;;;;;;8.07;6.93;;;;;;;18.17;37.90;97256.03;10368836;28;20033;-31
2024/01/10 13:42:29;;;;;;;13.43;9.13;;;;;;;18.20;35.81;97262.00;10368749;28;20091;-31
2024/01/10 13:47:29;;;;;;;12.53;9.40;;;;;;;18.25;34.59;97267.09;10363169;28;21158;-31
2024/01/10 13:52:30;;;;;;;19.73;11.53;;;;;;;18.24;35.40;97262.88;10368082;28;20501;-30
2024/01/10 13:57:34;;;;;;;20.87;11.77;;;;;;;17.94;34.55;97270.16;10369003;28;20512;-30
2024/01/10 14:02:35;;;;;;;16.50;10.55;;;;;;;18.06;36.66;97267.75;10367743;28;20684;-31
2024/01/10 14:07:36;;;;;;;15.45;8.90;;;;;;;18.13;38.89;97277.09;10368542;28;20030;-31
2024/01/10 14:12:37;;;;;;;12.48;8.95;;;;;;;18.17;38.82;97271.25;10368120;28;20026;-30
2024/01/10 14:17:37;;;;;;;12.60;8.40;;;;;;;18.12;38.95;97277.94;10367752;28;20041;-31
2024/01/10 14:22:37;;;;;;;12.03;8.87;;;;;;;18.15;40.22;97283.91;10367467;28;20034;-30
2024/01/10 14:27:41;;;;;;;16.75;11.50;;;;;;;17.90;35.93;97284.47;10367776;28;20540;-30
2024/01/10 14:32:41;;;;;;;13.65;9.85;;;;;;;18.02;36.42;97278.69;10366688;28;20045;-30
2024/01/10 14:37:42;;;;;;;13.77;9.43;;;;;;;18.05;36.83;97277.03;10366622;28;20038;-32
2024/01/10 14:42:42;;;;;;;11.77;8.50;;;;;;;18.06;37.00;97277.88;10367334;28;20068;-31
2024/01/10 14:47:42;;;;;;;10.77;8.67;;;;;;;18.06;37.95;97270.28;10366597;28;20030;-31
2024/01/10 14:52:43;;;;;;;11.33;9.17;;;;;;;18.06;38.51;97271.13;10366034;28;20046;-31
2024/01/10 14:57:43;;;;;;;11.43;8.75;;;;;;;18.07;37.68;97266.94;10367253;28;20029;-31
2024/01/10 15:02:43;;;;;;;12.07;9.10;;;;;;;18.10;38.69;97262.75;10366395;28;20044;-31
2024/01/10 15:07:44;;;;;;;10.77;8.37;;;;;;;18.11;39.38;97255.97;10365718;28;20119;-31
2024/01/10 15:12:44;;;;;;;10.63;7.80;;;;;;;18.11;39.36;97253.44;10365901;28;20033;-30
2024/01/10 15:17:44;;;;;;;12.53;8.87;;;;;;;18.13;38.85;97249.22;10365588;28;20041;-31
2024/01/10 15:22:45;;;;;;;9.20;8.20;;;;;;;18.13;38.44;97254.31;10364349;28;20038;-30
2024/01/10 15:27:45;;;;;;;11.60;8.13;;;;;;;18.11;40.12;97240.78;10366282;28;20033;-30
2024/01/10 15:32:48;;;;;;;9.10;8.10;;;;;;;18.10;38.71;97255.16;10364758;28;20108;-31
2024/01/10 15:37:49;;;;;;;10.77;8.20;;;;;;;18.10;39.68;97255.16;10365002;28;20083;-31
2024/01/10 15:42:49;;;;;;;11.43;8.07;;;;;;;18.12;36.47;97265.28;10364169;28;20048;-31
2024/01/10 15:47:49;;;;;;;10.90;7.77;;;;;;;18.11;39.47;97258.50;10364534;28;20030;-31
2024/01/10 15:52:51;;;;;;;11.33;7.90;;;;;;;18.11;38.78;97258.50;10363715;28;20033;-30
2024/01/10 15:57:51;;;;;;;9.90;8.00;;;;;;;18.04;37.89;97264.34;10364659;28;20034;-31
2024/01/10 16:02:51;;;;;;;12.13;8.67;;;;;;;18.07;36.22;97269.47;10364135;28;20041;-31
2024/01/10 16:07:52;;;;;;;9.53;7.80;;;;;;;18.04;37.87;97277.88;10362226;28;20034;-30
2024/01/10 16:12:53;;;;;;;10.63;8.23;;;;;;;18.03;37.57;97282.91;10361820;28;20390;-31
2024/01/10 16:17:53;;;;;;;9.50;8.02;;;;;;;18.01;36.39;97277.00;10363987;28;20040;-30
2024/01/10 16:22:54;;;;;;;9.93;7.20;;;;;;;18.06;39.91;97293.06;10362145;28;20046;-30
2024/01/10 16:27:54;;;;;;;8.33;7.00;;;;;;;18.03;39.93;97290.53;10364184;28;20288;-31
2024/01/10 16:32:54;;;;;;;7.90;6.93;;;;;;;18.04;38.65;97292.22;10359973;28;20041;-30
2024/01/10 16:37:55;;;;;;;8.37;6.90;;;;;;;18.03;38.02;97293.06;10357918;28;20038;-31
2024/01/10 16:42:55;;;;;;;8.57;7.43;;;;;;;18.02;38.07;97296.44;10358388;28;20034;-31
2024/01/10 16:47:55;;;;;;;10.10;8.07;;;;;;;18.08;37.08;97306.63;10360207;28;20567;-31
2024/01/10 16:52:58;;;;;;;11.37;8.73;;;;;;;18.09;37.45;97308.34;10365254;28;20114;-31
2024/01/10 16:57:58;;;;;;;10.40;8.65;;;;;;;18.12;36.49;97319.34;10371179;28;20038;-31
2024/01/10 17:02:59;;;;;;;10.17;8.67;;;;;;;18.09;36.97;97308.34;10365131;28;20034;-31
2024/01/10 17:07:59;;;;;;;9.60;7.55;;;;;;;18.17;36.28;97311.81;10359706;28;20292;-30
2024/01/10 17:13:00;;;;;;;10.07;7.47;;;;;;;18.15;36.78;97321.91;10361490;28;20555;-30
2024/01/10 17:18:00;;;;;;;11.88;8.43;;;;;;;18.13;36.57;97315.97;10370390;28;20468;-31
2024/01/10 17:23:01;;;;;;;10.77;8.83;;;;;;;18.13;36.10;97315.13;10364421;28;20030;-30
2024/01/10 17:28:02;;;;;;;14.00;8.77;;;;;;;18.13;36.82;97315.13;10370828;28;20033;-30
2024/01/10 17:33:08;;;;;;;11.23;9.13;;;;;;;18.11;35.04;97316.78;10370098;28;20300;-31
2024/01/10 17:38:08;;;;;;;10.55;8.75;;;;;;;18.06;36.11;97309.16;10370962;28;20041;-31
2024/01/10 17:43:09;;;;;;;8.87;7.60;;;;;;;18.01;36.28;97320.91;10368588;28;20406;-31
2024/01/10 17:48:09;;;;;;;9.93;8.17;;;;;;;18.00;37.05;97313.31;10370612;28;20296;-31
2024/01/10 17:53:09;;;;;;;10.10;8.17;;;;;;;18.04;36.35;97317.56;10369914;28;20040;-31
2024/01/10 17:58:10;;;;;;;10.57;8.97;;;;;;;18.07;34.94;97315.06;10370634;28;20034;-30
2024/01/10 18:03:10;;;;;;;12.13;9.23;;;;;;;18.07;35.36;97323.50;10367561;28;20044;-30
2024/01/10 18:08:11;;;;;;;14.05;9.88;;;;;;;18.16;34.66;97316.00;10368949;28;20041;-31
2024/01/10 18:13:12;;;;;;;20.57;9.60;;;;;;;18.21;36.74;97318.59;10369427;28;20056;-29
2024/01/10 18:18:13;;;;;;;10.18;7.90;;;;;;;18.19;39.02;97320.25;10369055;28;20045;-30
2024/01/10 18:23:13;;;;;;;18.00;9.20;;;;;;;18.25;38.71;97327.94;10368010;28;20041;-31
2024/01/10 18:28:14;;;;;;;10.85;8.70;;;;;;;18.23;37.99;97327.03;10370140;28;20335;-30
2024/01/10 18:33:16;;;;;;;13.20;9.93;;;;;;;18.20;36.98;97327.91;10368743;28;20030;-31
2024/01/10 18:38:17;;;;;;;12.63;8.68;;;;;;;18.24;35.98;97329.59;10368000;28;20077;-31
2024/01/10 18:43:18;;;;;;;12.10;8.18;;;;;;;18.23;36.65;97332.13;10367468;28;20080;-31
2024/01/10 18:48:19;;;;;;;10.27;8.93;;;;;;;18.25;37.83;97330.47;10367654;28;20080;-31
2024/01/10 18:53:20;;;;;;;12.48;9.25;;;;;;;18.24;36.41;97343.97;10364640;28;20115;-31
2024/01/10 18:58:20;;;;;;;13.47;9.03;;;;;;;18.21;37.66;97343.94;10368039;28;20034;-31
2024/01/10 19:03:20;;;;;;;10.57;8.43;;;;;;;18.19;37.95;97341.41;10366758;28;20044;-32
2024/01/10 19:08:21;;;;;;;9.93;8.03;;;;;;;18.15;38.25;97349.78;10367303;28;20354;-32
2024/01/10 19:13:21;;;;;;;11.40;8.83;;;;;;;18.14;37.48;97347.22;10365844;28;20160;-30
2024/01/10 19:18:22;;;;;;;12.03;9.40;;;;;;;18.14;37.16;97348.09;10363100;28;20030;-31
2024/01/10 19:23:22;;;;;;;11.53;8.27;;;;;;;18.11;37.80;97353.13;10364991;28;20293;-32
2024/01/10 19:28:23;;;;;;;10.13;8.87;;;;;;;18.12;37.13;97359.03;10362815;28;20113;-31
2024/01/10 19:33:24;;;;;;;12.55;8.98;;;;;;;18.13;36.98;97356.53;10364426;28;20040;-32
2024/01/10 19:38:26;;;;;;;10.77;8.23;;;;;;;18.12;37.40;97353.97;10364795;28;20685;-30
2024/01/10 19:43:27;;;;;;;11.38;9.38;;;;;;;18.10;37.71;97350.56;10363581;28;20112;-31
2024/01/10 19:48:27;;;;;;;12.52;8.75;;;;;;;18.10;38.15;97355.66;10363332;28;20320;-32
2024/01/10 19:53:27;;;;;;;9.90;8.53;;;;;;;18.03;38.32;97359.78;10364849;28;20042;-30
2024/01/10 19:58:28;;;;;;;16.80;10.00;;;;;;;17.98;36.52;97355.50;10364455;28;20444;-31
2024/01/10 20:03:28;;;;;;;11.23;9.60;;;;;;;18.10;36.95;97375.91;10357634;28;20121;-31
2024/01/10 20:08:29;;;;;;;11.43;9.20;;;;;;;18.11;36.64;97372.53;10361278;28;20300;-30
2024/01/10 20:13:29;;;;;;;13.60;10.63;;;;;;;18.09;35.50;97375.03;10358610;28;20735;-30
2024/01/10 20:18:33;;;;;;;13.48;9.60;;;;;;;18.10;36.66;97376.78;10361607;28;20410;-30
2024/01/10 20:23:34;;;;;;;13.48;10.07;;;;;;;18.02;37.39;97382.56;10359173;28;20029;-31
2024/01/10 20:28:34;;;;;;;10.68;9.38;;;;;;;18.05;36.98;97395.25;10358149;28;20022;-31
2024/01/10 20:33:35;;;;;;;12.20;10.30;;;;;;;18.06;37.47;97399.50;10360025;28;20425;-30
2024/01/10 20:38:35;;;;;;;13.40;9.80;;;;;;;17.99;37.43;97396.03;10359466;28;20194;-30
2024/01/10 20:43:36;;;;;;;10.93;9.13;;;;;;;17.99;37.80;97393.50;10363451;28;20088;-31
2024/01/10 20:48:36;;;;;;;12.65;9.70;;;;;;;17.98;38.37;97393.50;10363121;28;20033;-30
2024/01/10 20:53:37;;;;;;;12.05;9.40;;;;;;;18.01;38.60;97391.00;10362038;28;20482;-31
2024/01/10 20:58:37;;;;;;;13.03;9.53;;;;;;;17.97;38.79;97389.25;10365347;28;20391;-31
2024/01/10 21:03:37;;;;;;;14.47;9.47;;;;;;;17.99;38.81;97392.69;10361385;28;20030;-31
2024/01/10 21:08:38;;;;;;;12.47;10.10;;;;;;;18.04;38.16;97398.63;10361828;28;20497;-31
2024/01/10 21:13:38;;;;;;;11.20;9.10;;;;;;;18.04;38.80;97402.03;10362702;28;20029;-31
2024/01/10 21:18:39;;;;;;;14.07;10.30;;;;;;;18.08;37.79;97400.41;10362694;28;20334;-32
2024/01/10 21:23:39;;;;;;;12.33;10.37;;;;;;;18.06;38.21;97394.44;10360597;28;20040;-31
2024/01/10 21:28:39;;;;;;;11.30;9.10;;;;;;;18.07;38.27;97393.63;10362833;28;20564;-31
2024/01/10 21:33:40;;;;;;;12.97;10.57;;;;;;;18.05;37.31;97385.13;10362337;28;20030;-31
2024/01/10 21:38:42;;;;;;;14.20;10.80;;;;;;;18.01;36.46;97391.84;10365813;28;20494;-30
2024/01/10 21:43:43;;;;;;;12.95;10.18;;;;;;;17.92;39.04;97389.19;10369503;28;20287;-31
2024/01/10 21:48:43;;;;;;;13.67;10.37;;;;;;;17.96;38.38;97387.56;10371371;28;20036;-30
2024/01/10 21:53:45;;;;;;;13.87;10.00;;;;;;;17.96;38.22;97375.75;10370782;28;20100;-31
2024/01/10 21:58:46;;;;;;;17.17;11.48;;;;;;;17.99;37.95;97380.00;10371386;28;20312;-31
2024/01/10 22:03:48;;;;;;;11.50;9.53;;;;;;;17.96;38.64;97382.47;10369182;28;20040;-31
2024/01/10 22:08:48;;;;;;;13.00;9.45;;;;;;;17.97;38.78;97384.19;10367250;28;20297;-32
2024/01/10 22:13:48;;;;;;;11.93;9.83;;;;;;;17.96;39.16;97379.94;10369432;28;20501;-31
2024/01/10 22:18:49;;;;;;;13.37;9.07;;;;;;;17.96;39.07;97377.41;10369393;28;20057;-33
2024/01/10 22:23:49;;;;;;;13.10;9.50;;;;;;;17.96;38.88;97382.47;10368311;28;20025;-31
2024/01/10 22:28:50;;;;;;;11.32;9.05;;;;;;;17.95;39.34;97373.19;10369338;28;20033;-30
2024/01/10 22:33:50;;;;;;;10.98;8.85;;;;;;;17.98;38.74;97375.78;10368337;28;20029;-30
2024/01/10 22:38:51;;;;;;;11.07;8.83;;;;;;;17.95;38.60;97368.13;10367858;28;20034;-30
2024/01/10 22:43:51;;;;;;;14.32;8.90;;;;;;;17.95;40.21;97375.72;10369151;28;20430;-31
2024/01/10 22:48:51;;;;;;;13.57;9.43;;;;;;;17.95;40.15;97374.06;10368496;28;20034;-30
2024/01/10 22:53:52;;;;;;;10.40;8.07;;;;;;;17.92;39.25;97370.63;10367655;28;20041;-30
2024/01/10 22:58:52;;;;;;;12.20;9.07;;;;;;;17.95;40.11;97365.59;10368980;28;20104;-30
2024/01/10 23:03:52;;;;;;;12.47;9.23;;;;;;;17.92;39.70;97360.50;10366913;28;20034;-30
2024/01/10 23:08:53;;;;;;;11.27;9.35;;;;;;;17.91;38.89;97359.63;10367726;28;20034;-32